Time;durP1;ratioP1;P1;durP2;ratioP2;P2;SDS_P1;SDS_P2;PMS_P1;PMS_P2;Temp;Humidity;BMP_temperature;BMP_pressure;BME280_temperature;BME280_humidity;BME280_pressure;Samples;Min_cycle;Max_cycle;Signal;HPM_P1;HPM_P2
2022/12/22 03:25:56;;;;;;;0.90;0.90;;;;;;;-0.92;100.00;98337.00;4936102;29;20056;-80
2022/12/22 03:28:25;;;;;;;0.90;0.90;;;;;;;-0.91;100.00;98336.03;4936073;29;20055;-81
2022/12/22 03:31:04;;;;;;;0.90;0.90;;;;;;;-0.90;100.00;98342.97;4936015;29;20122;-81
2022/12/22 03:33:34;;;;;;;0.80;0.80;;;;;;;-0.89;100.00;98344.63;4935753;29;20050;-81
2022/12/22 03:36:02;;;;;;;0.73;0.73;;;;;;;-0.88;100.00;98324.25;4936010;29;20063;-81
2022/12/22 03:38:29;;;;;;;1.00;1.00;;;;;;;-0.88;100.00;98318.94;4935747;29;20066;-81
2022/12/22 03:40:56;;;;;;;0.88;0.88;;;;;;;-0.88;100.00;98322.41;4936443;29;20066;-81
2022/12/22 03:46:30;;;;;;;0.93;0.93;;;;;;;-0.88;100.00;98314.44;4935639;29;20479;-81
2022/12/22 03:49:11;;;;;;;0.90;0.90;;;;;;;-0.87;100.00;98321.38;4935927;29;20043;-79
2022/12/22 03:51:49;;;;;;;0.80;0.80;;;;;;;-0.85;100.00;98336.28;4934557;29;20259;-80
2022/12/22 03:54:26;;;;;;;0.80;0.80;;;;;;;-0.85;100.00;98318.56;4934705;29;20051;-81
2022/12/22 03:56:53;;;;;;;0.80;0.80;;;;;;;-0.84;100.00;98322.03;4934230;29;20043;-81
2022/12/22 03:59:20;;;;;;;0.82;0.82;;;;;;;-0.86;100.00;98324.88;4935503;29;20055;-81
2022/12/22 04:01:52;;;;;;;0.90;0.90;;;;;;;-0.86;100.00;98338.13;4935408;29;20103;-81
2022/12/22 04:04:23;;;;;;;0.90;0.90;;;;;;;-0.89;100.00;98331.38;4935711;29;20143;-81
2022/12/22 04:06:51;;;;;;;1.00;1.00;;;;;;;-0.88;100.00;98330.34;4935444;29;20065;-81
2022/12/22 04:09:18;;;;;;;0.70;0.70;;;;;;;-0.89;100.00;98334.03;4935996;29;20055;-81
2022/12/22 04:14:31;;;;;;;0.85;0.85;;;;;;;-0.91;100.00;98330.72;4941500;29;20047;-81
2022/12/22 04:17:04;;;;;;;0.80;0.80;;;;;;;-0.90;100.00;98319.13;4945023;28;20087;-82
2022/12/22 04:19:32;;;;;;;0.88;0.88;;;;;;;-0.89;100.00;98334.03;4935173;29;20076;-82
2022/12/22 04:21:59;;;;;;;1.00;1.00;;;;;;;-0.93;100.00;98316.84;4935171;29;20067;-81
2022/12/22 04:24:26;;;;;;;1.00;1.00;;;;;;;-0.91;100.00;98319.31;4943157;29;20061;-81
2022/12/22 04:26:53;;;;;;;0.82;0.82;;;;;;;-0.88;100.00;98319.75;4946833;29;20083;-82
2022/12/22 04:29:20;;;;;;;0.90;0.90;;;;;;;-0.88;100.00;98313.63;4942342;29;20047;-82
2022/12/22 04:31:50;;;;;;;1.00;1.00;;;;;;;-0.87;100.00;98315.25;4934568;29;20138;-80
2022/12/22 04:34:17;;;;;;;1.05;1.05;;;;;;;-0.88;100.00;98311.81;4936349;29;20510;-82
2022/12/22 04:36:44;;;;;;;0.90;0.90;;;;;;;-0.89;100.00;98322.56;4941473;29;20051;-81
2022/12/22 04:39:11;;;;;;;0.70;0.70;;;;;;;-0.88;100.00;98316.28;4945256;28;20043;-83
2022/12/22 04:41:38;;;;;;;0.77;0.77;;;;;;;-0.88;100.00;98324.25;4934108;29;20066;-81
2022/12/22 04:44:05;;;;;;;0.85;0.85;;;;;;;-0.90;100.00;98319.13;4933140;29;20130;-81
2022/12/22 04:46:33;;;;;;;1.00;1.00;;;;;;;-0.88;100.00;98330.34;4934166;29;20526;-82
2022/12/22 04:49:00;;;;;;;1.00;1.00;;;;;;;-0.89;100.00;98325.22;4931542;29;20047;-84
2022/12/22 04:51:27;;;;;;;0.80;0.80;;;;;;;-0.89;100.00;98327.88;4936503;29;20142;-84
2022/12/22 04:53:54;;;;;;;0.70;0.70;;;;;;;-0.91;100.00;98333.38;4935669;29;20056;-82
2022/12/22 04:56:21;;;;;;;0.95;0.95;;;;;;;-0.90;100.00;98327.06;4934081;29;20080;-86
2022/12/22 04:58:48;;;;;;;0.90;0.90;;;;;;;-0.88;100.00;98330.34;4947901;29;20070;-85
2022/12/22 05:01:17;;;;;;;0.90;0.90;;;;;;;-0.87;100.00;98331.16;4941534;29;20087;-85
2022/12/22 05:03:44;;;;;;;0.90;0.90;;;;;;;-0.90;100.00;98328.91;4939894;29;20051;-84
2022/12/22 05:06:12;;;;;;;0.90;0.90;;;;;;;-0.89;100.00;98319.94;4939517;29;20310;-87
2022/12/22 05:08:39;;;;;;;0.88;0.88;;;;;;;-0.88;100.00;98329.53;4941902;29;20051;-85
2022/12/22 05:11:06;;;;;;;1.00;1.00;;;;;;;-0.89;100.00;98331.38;4949105;29;20069;-84
2022/12/22 05:13:33;;;;;;;1.00;1.00;;;;;;;-0.88;100.00;98345.44;4941384;29;20057;-82
2022/12/22 05:16:05;;;;;;;0.98;0.98;;;;;;;-0.87;100.00;98347.88;4948287;28;20150;-86
2022/12/22 05:18:33;;;;;;;0.85;0.85;;;;;;;-0.91;100.00;98349.28;4942979;28;20047;-83
2022/12/22 05:21:16;;;;;;;0.90;0.90;;;;;;;-0.92;100.00;98342.31;4943186;28;20066;-84
2022/12/22 05:23:43;;;;;;;0.90;0.90;;;;;;;-0.92;100.00;98344.97;4936748;28;20067;-84
2022/12/22 05:26:13;;;;;;;0.80;0.80;;;;;;;-0.92;100.00;98352.91;4933622;29;20109;-83
2022/12/22 05:28:41;;;;;;;1.00;1.00;;;;;;;-0.91;100.00;98361.72;4932997;29;20079;-83
2022/12/22 05:31:13;;;;;;;0.90;0.90;;;;;;;-0.93;100.00;98356.59;4933357;29;20073;-82
2022/12/22 05:33:40;;;;;;;0.82;0.82;;;;;;;-0.90;100.00;98372.09;4932127;29;20164;-82
2022/12/22 05:36:07;;;;;;;0.98;0.98;;;;;;;-0.90;100.00;98364.16;4933429;29;20523;-81
2022/12/22 05:38:34;;;;;;;0.90;0.90;;;;;;;-0.85;100.00;98374.19;4933300;29;20236;-81
2022/12/22 05:41:02;;;;;;;0.80;0.80;;;;;;;-0.87;100.00;98366.41;4933393;29;20522;-83
2022/12/22 05:43:31;;;;;;;0.82;0.82;;;;;;;-0.87;100.00;98369.06;4933364;29;20102;-80
2022/12/22 05:46:07;;;;;;;0.90;0.90;;;;;;;-0.85;100.00;98371.53;4933356;29;20060;-81
2022/12/22 05:48:35;;;;;;;0.90;0.90;;;;;;;-0.86;100.00;98369.91;4933041;29;20452;-82
2022/12/22 05:51:07;;;;;;;0.85;0.85;;;;;;;-0.87;100.00;98363.78;4933104;29;20055;-82
2022/12/22 05:53:34;;;;;;;0.80;0.80;;;;;;;-0.86;100.00;98369.91;4933060;29;20511;-82
2022/12/22 05:56:01;;;;;;;0.98;0.98;;;;;;;-0.88;100.00;98372.75;4932873;29;20146;-82
2022/12/22 05:58:42;;;;;;;0.85;0.85;;;;;;;-0.89;100.00;98371.09;4932623;28;20055;-82
2022/12/22 06:01:09;;;;;;;0.93;0.93;;;;;;;-0.88;100.00;98367.44;4932955;29;20467;-82
2022/12/22 06:03:36;;;;;;;1.00;1.00;;;;;;;-0.88;100.00;98371.91;4933178;29;20475;-84
2022/12/22 06:06:04;;;;;;;0.90;0.90;;;;;;;-0.90;100.00;98371.28;4933106;29;20142;-82
2022/12/22 06:08:31;;;;;;;0.80;0.80;;;;;;;-0.90;100.00;98376.56;4932653;29;20138;-81
2022/12/22 06:10:58;;;;;;;0.90;0.90;;;;;;;-0.93;100.00;98367.19;4931719;29;20142;-83
2022/12/22 06:13:26;;;;;;;1.00;1.00;;;;;;;-0.90;100.00;98368.63;4933166;29;20055;-83
2022/12/22 06:15:53;;;;;;;0.88;0.88;;;;;;;-0.91;100.00;98367.81;4932976;29;20109;-81
2022/12/22 06:18:20;;;;;;;0.80;0.80;;;;;;;-0.92;100.00;98371.47;4933568;29;20047;-83
2022/12/22 06:20:50;;;;;;;0.93;0.93;;;;;;;-0.91;100.00;98372.31;4932750;29;20056;-81
2022/12/22 06:23:17;;;;;;;0.80;0.80;;;;;;;-0.90;100.00;98382.69;4932955;29;20048;-82
2022/12/22 06:25:58;;;;;;;0.88;0.88;;;;;;;-0.90;100.00;98376.56;4932782;29;20100;-81
2022/12/22 06:28:25;;;;;;;0.80;0.80;;;;;;;-0.88;100.00;98385.16;4942267;29;20134;-81
2022/12/22 06:30:53;;;;;;;0.93;0.93;;;;;;;-0.87;100.00;98378.84;4951649;28;20085;-83
2022/12/22 06:33:20;;;;;;;0.90;0.90;;;;;;;-0.89;100.00;98373.75;4948041;29;20063;-82
2022/12/22 06:35:47;;;;;;;0.80;0.80;;;;;;;-0.92;100.00;98366.16;4942041;28;20062;-82
2022/12/22 06:38:25;;;;;;;1.00;1.00;;;;;;;-0.90;100.00;98374.75;4936874;28;20079;-82
2022/12/22 06:40:52;;;;;;;1.00;1.00;;;;;;;-0.89;100.00;98375.56;4939020;29;20090;-81
2022/12/22 06:43:19;;;;;;;0.90;0.90;;;;;;;-0.89;100.00;98370.25;4944232;29;20062;-82
2022/12/22 06:45:46;;;;;;;0.90;0.90;;;;;;;-0.90;100.00;98368.63;4936378;29;20127;-83
2022/12/22 06:48:13;;;;;;;0.90;0.90;;;;;;;-0.89;100.00;98365.81;4937178;29;20063;-81
2022/12/22 06:50:40;;;;;;;0.80;0.80;;;;;;;-0.87;100.00;98373.56;4936347;29;20091;-84
2022/12/22 06:53:08;;;;;;;0.90;0.90;;;;;;;-0.88;100.00;98378.03;4935656;29;20455;-82
2022/12/22 06:55:35;;;;;;;0.90;0.90;;;;;;;-0.88;100.00;98371.91;4937934;29;20066;-83
2022/12/22 06:58:03;;;;;;;0.90;0.90;;;;;;;-0.89;100.00;98379.06;4937100;29;20043;-82
2022/12/22 07:00:30;;;;;;;0.90;0.90;;;;;;;-0.86;100.00;98380.50;4936392;29;20055;-83
2022/12/22 07:02:57;;;;;;;0.93;0.93;;;;;;;-0.87;100.00;98374.38;4935279;29;20102;-82
2022/12/22 07:05:25;;;;;;;0.93;0.93;;;;;;;-0.84;100.00;98377.66;4936638;29;20043;-82
2022/12/22 07:07:56;;;;;;;0.82;0.82;;;;;;;-0.87;100.00;98378.84;4936535;29;20156;-82
2022/12/22 07:13:20;;;;;;;0.80;0.80;;;;;;;-0.83;100.00;98380.13;4936255;29;20048;-82
2022/12/22 07:15:47;;;;;;;0.90;0.90;;;;;;;-0.82;100.00;98371.16;4935910;29;20071;-82
2022/12/22 07:18:23;;;;;;;0.80;0.80;;;;;;;-0.83;100.00;98374.84;4936499;29;20131;-82
2022/12/22 07:20:50;;;;;;;0.80;0.80;;;;;;;-0.81;100.00;98375.47;4935981;29;20142;-82
2022/12/22 07:23:17;;;;;;;0.90;0.90;;;;;;;-0.81;100.00;98374.63;4934891;29;20587;-82
2022/12/22 07:25:44;;;;;;;0.90;0.90;;;;;;;-0.81;100.00;98371.97;4935973;29;20142;-82
2022/12/22 07:28:12;;;;;;;0.90;0.90;;;;;;;-0.78;100.00;98376.94;4934615;29;20103;-80
2022/12/22 07:30:46;;;;;;;0.90;0.90;;;;;;;-0.81;100.00;98372.81;4935418;29;20069;-82
2022/12/22 07:33:13;;;;;;;0.90;0.90;;;;;;;-0.78;100.00;98377.75;4934469;29;20054;-81
2022/12/22 07:35:40;;;;;;;0.82;0.82;;;;;;;-0.75;100.00;98377.38;4935634;29;20048;-82
2022/12/22 07:38:08;;;;;;;0.70;0.70;;;;;;;-0.73;100.00;98379.84;4936085;29;20047;-82
2022/12/22 07:40:35;;;;;;;0.93;0.93;;;;;;;-0.74;100.00;98383.47;4935617;29;20566;-82
2022/12/22 07:43:08;;;;;;;0.80;0.80;;;;;;;-0.75;100.00;98385.31;4936016;29;20051;-82
2022/12/22 07:45:35;;;;;;;1.00;1.00;;;;;;;-0.73;100.00;98385.94;4935850;29;20430;-82
2022/12/22 07:50:23;;;;;;;0.80;0.80;;;;;;;-0.72;100.00;98387.56;4934749;29;20178;-82
2022/12/22 07:50:50;;;;;;;1.00;1.00;;;;;;;-0.68;100.00;98382.75;4934340;29;20143;-83
2022/12/22 07:53:17;;;;;;;0.85;0.85;;;;;;;-0.69;100.00;98384.56;4935911;29;20498;-83
2022/12/22 07:55:44;;;;;;;0.85;0.85;;;;;;;-0.70;100.00;98376.81;4935245;29;20059;-82
2022/12/22 07:58:11;;;;;;;0.90;0.90;;;;;;;-0.70;100.00;98380.28;4935642;29;20058;-82
2022/12/22 08:00:38;;;;;;;0.75;0.75;;;;;;;-0.69;100.00;98381.09;4933328;29;20055;-83
2022/12/22 08:03:05;;;;;;;0.73;0.73;;;;;;;-0.71;100.00;98389.25;4934042;29;20051;-81
2022/12/22 08:05:32;;;;;;;1.00;1.00;;;;;;;-0.69;100.00;98391.69;4935495;29;20455;-82
2022/12/22 08:07:59;;;;;;;0.82;0.82;;;;;;;-0.68;100.00;98396.81;4935747;29;20067;-82
2022/12/22 08:10:26;;;;;;;0.90;0.90;;;;;;;-0.70;100.00;98393.53;4935293;29;20083;-82
2022/12/22 08:12:53;;;;;;;0.95;0.95;;;;;;;-0.70;100.00;98390.06;4935000;29;20184;-82
2022/12/22 08:15:21;;;;;;;0.77;0.77;;;;;;;-0.71;100.00;98388.41;4935699;29;20052;-82
2022/12/22 08:17:48;;;;;;;0.90;0.90;;;;;;;-0.72;100.00;98392.06;4936610;29;20083;-83
2022/12/22 08:20:15;;;;;;;0.90;0.90;;;;;;;-0.75;100.00;98387.97;4935691;29;20051;-83
2022/12/22 08:22:42;;;;;;;0.90;0.90;;;;;;;-0.73;100.00;98387.78;4933574;29;20490;-83
2022/12/22 08:25:09;;;;;;;0.82;0.82;;;;;;;-0.71;100.00;98391.03;4935385;29;20051;-81
2022/12/22 08:27:41;;;;;;;0.90;0.90;;;;;;;-0.72;100.00;98407.97;4933305;29;20070;-83
2022/12/22 08:30:09;;;;;;;0.82;0.82;;;;;;;-0.74;100.00;98394.06;4934757;29;20062;-82
2022/12/22 08:32:37;;;;;;;0.80;0.80;;;;;;;-0.75;100.00;98400.41;4934808;29;20081;-82
2022/12/22 08:35:04;;;;;;;0.90;0.90;;;;;;;-0.73;100.00;98393.09;4935215;29;20051;-81
2022/12/22 08:37:39;;;;;;;0.80;0.80;;;;;;;-0.71;100.00;98391.88;4933667;29;20418;-81
2022/12/22 08:40:10;;;;;;;0.82;0.82;;;;;;;-0.69;100.00;98391.69;4918586;29;20048;-81
2022/12/22 08:42:38;;;;;;;0.80;0.80;;;;;;;-0.69;100.00;98395.16;4933231;29;20048;-81
2022/12/22 08:45:08;;;;;;;0.85;0.85;;;;;;;-0.68;100.00;98390.69;4933183;29;20126;-81
2022/12/22 08:47:35;;;;;;;0.98;0.98;;;;;;;-0.68;100.00;98382.75;4933998;29;20079;-82
2022/12/22 08:50:05;;;;;;;0.90;0.90;;;;;;;-0.65;100.00;98382.38;4934601;29;20433;-81
2022/12/22 08:52:32;;;;;;;0.90;0.90;;;;;;;-0.66;100.00;98380.69;4933736;29;20138;-82
2022/12/22 08:54:59;;;;;;;0.90;0.90;;;;;;;-0.65;100.00;98385.00;4933943;29;20048;-82
2022/12/22 08:57:28;;;;;;;0.95;0.95;;;;;;;-0.68;100.00;98383.56;4934563;29;20534;-82
2022/12/22 08:59:58;;;;;;;0.90;0.90;;;;;;;-0.67;100.00;98377.25;4934055;29;20115;-82
2022/12/22 09:02:25;;;;;;;1.00;1.00;;;;;;;-0.62;100.00;98375.88;4933945;29;20052;-81
2022/12/22 09:04:53;;;;;;;0.80;0.80;;;;;;;-0.62;100.00;98381.97;4934096;29;20130;-82
2022/12/22 09:07:22;;;;;;;0.90;0.90;;;;;;;-0.60;100.00;98374.66;4934284;29;20063;-81
2022/12/22 09:09:49;;;;;;;0.80;0.80;;;;;;;-0.62;100.00;98381.97;4932545;29;20106;-82
2022/12/22 09:12:17;;;;;;;0.80;0.80;;;;;;;-0.61;100.00;98382.78;4916875;29;20051;-83
2022/12/22 09:14:44;;;;;;;0.90;0.90;;;;;;;-0.63;100.00;98390.94;4933598;29;20051;-82
2022/12/22 09:17:10;;;;;;;0.75;0.75;;;;;;;-0.64;100.00;98389.28;4935667;29;20052;-81
2022/12/22 09:19:38;;;;;;;1.00;1.00;;;;;;;-0.67;100.00;98389.69;4935192;29;20159;-82
2022/12/22 09:22:05;;;;;;;1.00;1.00;;;;;;;-0.63;100.00;98379.50;4933934;29;20079;-82
2022/12/22 09:24:33;;;;;;;0.82;0.82;;;;;;;-0.61;100.00;98386.25;4932697;29;20056;-82
2022/12/22 09:27:02;;;;;;;0.90;0.90;;;;;;;-0.60;100.00;98395.06;4933926;29;20060;-82
2022/12/22 09:29:29;;;;;;;0.80;0.80;;;;;;;-0.58;100.00;98393.00;4933809;29;20056;-81
2022/12/22 09:31:56;;;;;;;1.00;1.00;;;;;;;-0.60;100.00;98393.22;4935351;29;20499;-81
2022/12/22 09:34:24;;;;;;;0.80;0.80;;;;;;;-0.59;100.00;98400.16;4940347;29;20054;-83
2022/12/22 09:36:58;;;;;;;0.93;0.93;;;;;;;-0.59;100.00;98394.84;4933647;29;20050;-82
2022/12/22 09:39:26;;;;;;;0.80;0.80;;;;;;;-0.61;100.00;98398.69;4935504;28;20059;-82
2022/12/22 09:41:56;;;;;;;0.82;0.82;;;;;;;-0.59;100.00;98396.69;4941890;29;20086;-82
2022/12/22 09:44:33;;;;;;;0.77;0.77;;;;;;;-0.60;100.00;98411.78;4942299;29;20047;-82
2022/12/22 09:47:24;;;;;;;0.82;0.82;;;;;;;-0.63;100.00;98400.72;4938174;28;20146;-80
2022/12/22 09:49:52;;;;;;;0.90;0.90;;;;;;;-0.65;100.00;98403.56;4948291;29;20055;-84
2022/12/22 09:52:39;;;;;;;0.90;0.90;;;;;;;-0.67;100.00;98411.69;4937031;29;20060;-82
2022/12/22 09:55:24;;;;;;;0.80;0.80;;;;;;;-0.68;100.00;98394.16;4934226;29;20184;-83
2022/12/22 09:57:54;;;;;;;0.90;0.90;;;;;;;-0.68;100.00;98390.69;4931323;29;20047;-84
2022/12/22 10:00:25;;;;;;;0.80;0.80;;;;;;;-0.69;100.00;98392.50;4943286;29;20051;-85
2022/12/22 10:03:01;;;;;;;0.90;0.90;;;;;;;-0.66;100.00;98402.75;4932898;29;20051;-83
2022/12/22 10:05:47;;;;;;;0.90;0.90;;;;;;;-0.70;100.00;98405.94;4920317;29;20059;-83
2022/12/22 10:08:32;;;;;;;0.82;0.82;;;;;;;-0.71;100.00;98397.19;4939068;29;20055;-84
2022/12/22 10:11:04;;;;;;;0.88;0.88;;;;;;;-0.71;100.00;98402.50;4937306;29;20071;-82
2022/12/22 10:13:31;;;;;;;0.82;0.82;;;;;;;-0.75;100.00;98403.84;4915914;29;20585;-86
2022/12/22 10:15:58;;;;;;;0.90;0.90;;;;;;;-0.78;100.00;98392.81;4937168;29;20075;-84
2022/12/22 10:18:27;;;;;;;0.93;0.93;;;;;;;-0.77;100.00;98399.75;4938482;29;20082;-83
2022/12/22 10:21:14;;;;;;;0.90;0.90;;;;;;;-0.75;100.00;98397.75;4937299;29;20515;-83
2022/12/22 10:23:47;;;;;;;0.90;0.90;;;;;;;-0.81;100.00;98382.56;4935507;29;20059;-82
2022/12/22 10:26:26;;;;;;;0.90;0.90;;;;;;;-0.80;100.00;98385.06;4928841;29;20056;-83
2022/12/22 10:29:09;;;;;;;1.00;1.00;;;;;;;-0.80;100.00;98389.53;4942641;29;20411;-83
2022/12/22 10:32:22;;;;;;;0.82;0.82;;;;;;;-0.81;100.00;98387.88;4929694;29;20055;-83
2022/12/22 10:35:00;;;;;;;0.90;0.90;;;;;;;-0.81;100.00;98387.88;4938104;29;20051;-83
2022/12/22 10:37:34;;;;;;;0.80;0.80;;;;;;;-0.77;100.00;98382.03;4938324;29;20118;-83
2022/12/22 10:40:32;;;;;;;0.88;0.88;;;;;;;-0.74;100.00;98386.13;4938912;29;20142;-83
2022/12/22 10:43:01;;;;;;;0.80;0.80;;;;;;;-0.73;100.00;98380.66;4863043;29;20117;-83
2022/12/22 10:45:28;;;;;;;0.90;0.90;;;;;;;-0.70;100.00;98376.81;4838453;29;20556;-82
2022/12/22 10:47:55;;;;;;;0.90;0.90;;;;;;;-0.70;100.00;98384.75;4825882;29;20525;-82
2022/12/22 10:50:23;;;;;;;0.80;0.80;;;;;;;-0.76;100.00;98382.84;4857088;29;20057;-82
2022/12/22 10:52:55;;;;;;;0.80;0.80;;;;;;;-0.72;100.00;98386.75;4859106;29;20065;-82
2022/12/22 10:55:28;;;;;;;0.80;0.80;;;;;;;-0.74;100.00;98383.47;4846159;29;20049;-82
2022/12/22 10:58:14;;;;;;;0.80;0.80;;;;;;;-0.72;100.00;98384.13;4845387;29;20064;-82
2022/12/22 11:00:43;;;;;;;0.90;0.90;;;;;;;-0.71;100.00;98380.44;4857771;29;20086;-83
2022/12/22 11:03:13;;;;;;;0.90;0.90;;;;;;;-0.71;100.00;98383.09;4859859;29;20518;-83
2022/12/22 11:05:50;;;;;;;0.90;0.90;;;;;;;-0.66;100.00;98391.31;4849516;29;20061;-83
2022/12/22 11:08:19;;;;;;;0.80;0.80;;;;;;;-0.66;100.00;98400.09;4851343;29;20105;-82
2022/12/22 11:11:07;;;;;;;0.90;0.90;;;;;;;-0.63;100.00;98412.16;4852102;29;20053;-83
2022/12/22 11:13:40;;;;;;;1.00;1.00;;;;;;;-0.69;100.00;98400.44;4843696;29;20430;-82
2022/12/22 11:16:32;;;;;;;1.00;1.00;;;;;;;-0.69;100.00;98399.63;4870487;29;20049;-82
2022/12/22 11:19:35;;;;;;;0.90;0.90;;;;;;;-0.68;100.00;98411.91;4874499;29;20055;-83
2022/12/22 11:22:17;;;;;;;0.80;0.80;;;;;;;-0.74;100.00;98409.97;4914116;29;20067;-83
2022/12/22 11:25:20;;;;;;;0.80;0.80;;;;;;;-0.77;100.00;98407.69;4934337;29;20063;-80
2022/12/22 11:28:19;;;;;;;1.00;1.00;;;;;;;-0.78;100.00;98408.72;4945439;29;20079;-83
2022/12/22 11:31:20;;;;;;;1.00;1.00;;;;;;;-0.79;100.00;98412.34;4887296;29;20063;-82
2022/12/22 11:34:03;;;;;;;0.82;0.82;;;;;;;-0.81;100.00;98395.81;4891244;29;20147;-83
2022/12/22 11:37:12;;;;;;;0.90;0.90;;;;;;;-0.79;100.00;98402.56;4883811;29;20052;-82
2022/12/22 11:40:03;;;;;;;0.90;0.90;;;;;;;-0.81;100.00;98404.63;4812874;29;20569;-82
2022/12/22 11:43:09;;;;;;;0.73;0.73;;;;;;;-0.85;100.00;98407.81;4810107;29;20446;-81
2022/12/22 11:46:17;;;;;;;0.80;0.80;;;;;;;-0.80;100.00;98405.44;4812878;29;20060;-82
2022/12/22 11:48:51;;;;;;;0.80;0.80;;;;;;;-0.79;100.00;98417.66;4808589;29;20103;-83
2022/12/22 11:51:31;;;;;;;0.98;0.98;;;;;;;-0.76;100.00;98415.47;4806184;29;20156;-82
2022/12/22 11:54:16;;;;;;;0.80;0.80;;;;;;;-0.78;100.00;98419.31;4783681;29;20105;-83
2022/12/22 11:56:49;;;;;;;1.00;1.00;;;;;;;-0.82;100.00;98421.50;4795276;29;20046;-82
2022/12/22 11:59:35;;;;;;;0.88;0.88;;;;;;;-0.82;100.00;98418.84;4789450;29;20478;-83
2022/12/22 12:02:23;;;;;;;1.00;1.00;;;;;;;-0.77;100.00;98424.41;4784740;29;20079;-83
2022/12/22 12:04:50;;;;;;;0.90;0.90;;;;;;;-0.78;100.00;98430.72;4799749;29;20161;-83
2022/12/22 12:07:42;;;;;;;0.90;0.90;;;;;;;-0.78;100.00;98432.56;4826425;29;20052;-83
2022/12/22 12:10:51;;;;;;;0.90;0.90;;;;;;;-0.77;100.00;98428.91;4857968;29;20049;-82
2022/12/22 12:13:30;;;;;;;0.90;0.90;;;;;;;-0.80;100.00;98431.94;4882693;29;20530;-84
2022/12/22 12:16:03;;;;;;;0.90;0.90;;;;;;;-0.80;100.00;98431.94;4935773;29;20138;-83
2022/12/22 12:18:35;;;;;;;1.00;1.00;;;;;;;-0.83;100.00;98437.59;4943030;29;20146;-83
2022/12/22 12:21:29;;;;;;;0.90;0.90;;;;;;;-0.84;100.00;98447.34;4934154;29;20056;-83
2022/12/22 12:24:11;;;;;;;1.10;1.10;;;;;;;-0.83;100.00;98442.91;4932096;29;20055;-83
2022/12/22 12:27:00;;;;;;;0.80;0.80;;;;;;;-0.83;100.00;98445.56;4934146;29;20055;-83
2022/12/22 12:29:44;;;;;;;0.80;0.80;;;;;;;-0.88;100.00;98436.31;4944578;29;20106;-82
2022/12/22 12:32:26;;;;;;;0.90;0.90;;;;;;;-0.88;100.00;98438.97;4933908;29;20078;-82
2022/12/22 12:35:07;;;;;;;1.00;1.00;;;;;;;-0.88;100.00;98435.50;4916379;29;20454;-82
2022/12/22 12:37:37;;;;;;;1.00;1.00;;;;;;;-0.81;100.00;98446.16;4931526;29;20139;-83
2022/12/22 12:40:35;;;;;;;0.82;0.82;;;;;;;-0.85;100.00;98443.06;4939797;29;20056;-83
2022/12/22 12:43:02;;;;;;;1.00;1.00;;;;;;;-0.87;100.00;98442.44;4940199;29;20479;-83
2022/12/22 12:45:44;;;;;;;0.90;0.90;;;;;;;-0.84;100.00;98443.88;4936238;29;20083;-83
2022/12/22 12:48:22;;;;;;;0.90;0.90;;;;;;;-0.83;100.00;98442.91;4932998;29;20059;-82
2022/12/22 12:50:54;;;;;;;0.90;0.90;;;;;;;-0.87;100.00;98448.53;4933146;29;20055;-82
2022/12/22 12:53:26;;;;;;;0.80;0.80;;;;;;;-0.87;100.00;98451.19;4935434;29;20067;-82
2022/12/22 12:55:58;;;;;;;0.90;0.90;;;;;;;-0.85;100.00;98450.22;4941898;29;20499;-82
2022/12/22 12:58:49;;;;;;;0.90;0.90;;;;;;;-0.84;100.00;98451.84;4937609;29;20119;-82
2022/12/22 13:01:25;;;;;;;0.80;0.80;;;;;;;-0.87;100.00;98455.69;4926314;29;20063;-84
2022/12/22 13:03:53;;;;;;;0.80;0.80;;;;;;;-0.87;100.00;98447.72;4946612;29;20456;-83
2022/12/22 13:06:45;;;;;;;0.90;0.90;;;;;;;-0.84;100.00;98446.53;4941789;28;20054;-82
2022/12/22 13:09:23;;;;;;;0.70;0.70;;;;;;;-0.83;100.00;98450.84;4937347;28;20059;-84
2022/12/22 13:12:49;;;;;;;1.00;1.00;;;;;;;-0.81;100.00;98454.13;4597097;29;10000063;-84
2022/12/22 13:15:38;;;;;;;0.85;0.85;;;;;;;-0.80;100.00;98458.44;4929920;29;20059;-82
2022/12/22 13:18:44;;;;;;;0.93;0.93;;;;;;;-0.78;100.00;98459.88;4938964;29;20741;-81
2022/12/22 13:21:24;;;;;;;0.90;0.90;;;;;;;-0.79;100.00;98457.41;4930483;29;20065;-81
2022/12/22 13:24:25;;;;;;;1.00;1.00;;;;;;;-0.79;100.00;98460.06;4938586;29;20062;-83
2022/12/22 13:27:00;;;;;;;0.93;0.93;;;;;;;-0.78;100.00;98462.53;4934234;29;20264;-85
2022/12/22 13:29:50;;;;;;;0.90;0.90;;;;;;;-0.77;100.00;98458.88;4940847;29;20047;-85
2022/12/22 13:32:33;;;;;;;0.90;0.90;;;;;;;-0.79;100.00;98463.53;4933897;29;20166;-84
2022/12/22 13:35:23;;;;;;;0.82;0.82;;;;;;;-0.78;100.00;98465.19;4935865;29;20486;-82
2022/12/22 13:38:01;;;;;;;1.00;1.00;;;;;;;-0.83;100.00;98459.63;4922586;29;20051;-83
2022/12/22 13:40:40;;;;;;;0.90;0.90;;;;;;;-0.79;100.00;98468.00;4927663;29;20056;-83
2022/12/22 13:43:14;;;;;;;0.98;0.98;;;;;;;-0.81;100.00;98472.66;4930710;29;20162;-83
2022/12/22 13:45:46;;;;;;;0.90;0.90;;;;;;;-0.81;100.00;98470.00;4939173;28;20058;-83
2022/12/22 13:48:37;;;;;;;0.90;0.90;;;;;;;-0.82;100.00;98476.31;4932722;28;20229;-83
2022/12/22 13:51:18;;;;;;;0.95;0.95;;;;;;;-0.83;100.00;98475.50;4921708;29;20696;-84
2022/12/22 13:53:54;;;;;;;0.90;0.90;;;;;;;-0.87;100.00;98475.03;4929106;29;20131;-82
2022/12/22 13:56:46;;;;;;;0.80;0.80;;;;;;;-0.85;100.00;98474.88;4934897;29;20057;-82
2022/12/22 13:59:26;;;;;;;0.90;0.90;;;;;;;-0.88;100.00;98476.06;4916871;29;20079;-83
2022/12/22 14:01:58;;;;;;;0.90;0.90;;;;;;;-0.89;100.00;98485.03;4938243;29;20550;-83
2022/12/22 14:04:26;;;;;;;0.90;0.90;;;;;;;-0.87;100.00;98482.19;4942669;29;20508;-83
2022/12/22 14:06:53;;;;;;;0.90;0.90;;;;;;;-0.88;100.00;98478.72;4931993;29;20047;-83
2022/12/22 14:09:26;;;;;;;1.00;1.00;;;;;;;-0.84;100.00;98484.44;4935118;29;20134;-82
2022/12/22 14:12:04;;;;;;;0.80;0.80;;;;;;;-0.87;100.00;98480.34;4940643;29;20110;-85
2022/12/22 14:14:41;;;;;;;0.88;0.88;;;;;;;-0.87;100.00;98488.28;4926722;29;20060;-82
2022/12/22 14:17:23;;;;;;;0.90;0.90;;;;;;;-0.84;100.00;98492.41;4937227;29;20139;-82
2022/12/22 14:19:55;;;;;;;0.90;0.90;;;;;;;-0.87;100.00;98488.28;4936712;28;20055;-82
2022/12/22 14:22:35;;;;;;;0.90;0.90;;;;;;;-0.89;100.00;98482.38;4964560;28;20143;-82
2022/12/22 14:25:18;;;;;;;0.90;0.90;;;;;;;-0.86;100.00;98486.47;4952882;29;20555;-82
2022/12/22 14:27:55;;;;;;;0.90;0.90;;;;;;;-0.83;100.00;98469.41;4953406;28;20051;-81
2022/12/22 14:30:34;;;;;;;0.82;0.82;;;;;;;-0.84;100.00;98480.97;4952431;28;20059;-82
2022/12/22 14:33:28;;;;;;;0.98;0.98;;;;;;;-0.83;100.00;98474.69;4935361;29;20059;-82
2022/12/22 14:36:21;;;;;;;0.70;0.70;;;;;;;-0.80;100.00;98482.28;4951968;28;20121;-81
2022/12/22 14:38:54;;;;;;;0.90;0.90;;;;;;;-0.85;100.00;98471.41;4950617;29;20145;-82
2022/12/22 14:41:41;;;;;;;0.95;0.95;;;;;;;-0.88;100.00;98475.25;4951950;28;20146;-82
2022/12/22 14:44:18;;;;;;;0.93;0.93;;;;;;;-0.84;100.00;98479.16;4935079;29;20051;-82
2022/12/22 14:47:08;;;;;;;0.80;0.80;;;;;;;-0.84;100.00;98486.28;4951550;28;20078;-82
2022/12/22 14:50:03;;;;;;;0.95;0.95;;;;;;;-0.84;100.00;98496.88;4941458;29;20543;-82
2022/12/22 14:52:38;;;;;;;0.70;0.70;;;;;;;-0.91;100.00;98505.56;4950690;29;20114;-81
2022/12/22 14:55:35;;;;;;;0.90;0.90;;;;;;;-0.91;100.00;98504.75;4951753;29;20098;-82
2022/12/22 14:58:20;;;;;;;0.90;0.90;;;;;;;-0.92;100.00;98506.56;4944140;28;20134;-82
2022/12/22 15:01:21;;;;;;;0.93;0.93;;;;;;;-0.99;100.00;98500.34;4955104;29;20062;-82
2022/12/22 15:04:04;;;;;;;0.90;0.90;;;;;;;-0.98;100.00;98499.34;4955206;29;20150;-82
2022/12/22 15:06:42;;;;;;;1.00;1.00;;;;;;;-0.99;100.00;98507.47;4958712;28;20047;-82
2022/12/22 15:09:12;;;;;;;0.93;0.93;;;;;;;-0.98;100.00;98514.44;4954960;29;20050;-81
2022/12/22 15:11:43;;;;;;;0.90;0.90;;;;;;;-1.01;100.00;98505.03;4955248;28;20043;-82
2022/12/22 15:14:14;;;;;;;1.00;1.00;;;;;;;-1.00;100.00;98519.09;4955663;28;20055;-82
2022/12/22 15:16:41;;;;;;;1.00;1.00;;;;;;;-1.00;100.00;98519.09;4953895;29;20055;-82
2022/12/22 15:19:13;;;;;;;0.88;0.88;;;;;;;-1.02;100.00;98503.38;4953548;29;20106;-81
2022/12/22 15:21:40;;;;;;;0.82;0.82;;;;;;;-0.98;100.00;98519.72;4955121;28;20146;-81
2022/12/22 15:24:12;;;;;;;0.90;0.90;;;;;;;-0.98;100.00;98511.78;4955032;28;20086;-82
2022/12/22 15:26:39;;;;;;;0.80;0.80;;;;;;;-0.99;100.00;98513.59;4955830;28;20055;-82
2022/12/22 15:29:06;;;;;;;0.90;0.90;;;;;;;-0.99;100.00;98518.06;4954906;28;20134;-82
2022/12/22 15:31:36;;;;;;;0.90;0.90;;;;;;;-1.00;100.00;98511.13;4937695;29;20047;-82